Cedar Falls, Washington
Current Conditions -  °F | °C
As of 6:53 AM on Friday 19 Dec 2014 (Local Time) from KRNT Reporting Station
Scattered Clouds Scattered Clouds  
Wind Chill: 46°   Ceiling: Unl
Heat Index: 46°   Visibility: 10mi
Dew Point: 44°   Wind: 3mph
Humidity: 93%   Direction: 110°ESE
Pressure: 29.86"   Gusts: NA
Location:  47.4594°N, 121.612°W
Report Text: KRNT 191453Z 11003KT 10SM SCT050 08/07 A2986 RMK AO2 SLP116 60000 T00780067 53010
Loading
Personal Weather Stations






























Interactive Weather Map New forecast layout! Learn more

10-Day Weather Forecast

Advertisements
Track Severe Weather on mobile